Terminal Aerodrome Forecast
Issued by NWS

Home | Current Version | Previous Version | Text Only | Print | Product List | Glossary On
Versions: 1 2 3 4 5 6 7 8 9 10 11 12 13 14 15 16 17 18 19 20
708
FTUS44 KMAF 080733 AAC
TAFFST
TAF AMD
KFST 080733Z 0808/0906 03011G21KT 3SM -RA BR OVC004
     FM081200 02013G21KT 5SM -RASN BR OVC010
      TEMPO 0814/0816 4SM -SN
     FM082000 06009KT P6SM OVC025
     FM090000 06006KT P6SM OVC035=

USA.gov is the U.S. government's official web portal to all federal, state and local government web resources and services.